sensor_id;sensor_type;location;lat;lon;timestamp;P1;durP1;ratioP1;P2;durP2;ratioP2
39276;SDS011;63149;48.086;-1.606;2023-02-25T06:02:00;18.88;;;8.15;;
39276;SDS011;63149;48.086;-1.606;2023-02-25T06:04:26;15.20;;;7.03;;
39276;SDS011;63149;48.086;-1.606;2023-02-25T06:06:53;17.80;;;8.40;;
39276;SDS011;63149;48.086;-1.606;2023-02-25T06:09:21;14.25;;;6.15;;
39276;SDS011;63149;48.086;-1.606;2023-02-25T06:11:48;17.50;;;6.63;;
39276;SDS011;63149;48.086;-1.606;2023-02-25T06:14:15;16.90;;;6.32;;
39276;SDS011;63149;48.086;-1.606;2023-02-25T06:16:42;13.88;;;6.18;;
39276;SDS011;63149;48.086;-1.606;2023-02-25T06:19:11;14.70;;;6.35;;
39276;SDS011;63149;48.086;-1.606;2023-02-25T06:21:38;12.63;;;5.95;;
39276;SDS011;63149;48.086;-1.606;2023-02-25T06:24:05;14.38;;;5.75;;
39276;SDS011;63149;48.086;-1.606;2023-02-25T06:26:32;15.55;;;6.20;;
39276;SDS011;63149;48.086;-1.606;2023-02-25T06:29:05;14.82;;;6.22;;
39276;SDS011;63149;48.086;-1.606;2023-02-25T06:31:33;14.15;;;6.13;;
39276;SDS011;63149;48.086;-1.606;2023-02-25T06:34:00;17.58;;;6.20;;
39276;SDS011;63149;48.086;-1.606;2023-02-25T06:36:29;11.82;;;6.50;;
39276;SDS011;63149;48.086;-1.606;2023-02-25T06:38:56;18.00;;;6.10;;
39276;SDS011;63149;48.086;-1.606;2023-02-25T06:41:23;13.70;;;5.40;;
39276;SDS011;63149;48.086;-1.606;2023-02-25T06:43:50;14.68;;;5.43;;
39276;SDS011;63149;48.086;-1.606;2023-02-25T06:46:18;22.75;;;6.38;;
39276;SDS011;63149;48.086;-1.606;2023-02-25T06:48:46;13.88;;;6.47;;
39276;SDS011;63149;48.086;-1.606;2023-02-25T06:51:13;14.05;;;5.63;;
39276;SDS011;63149;48.086;-1.606;2023-02-25T06:53:42;16.83;;;6.15;;
39276;SDS011;63149;48.086;-1.606;2023-02-25T06:56:11;14.93;;;5.57;;
39276;SDS011;63149;48.086;-1.606;2023-02-25T06:58:40;17.17;;;6.43;;
39276;SDS011;63149;48.086;-1.606;2023-02-25T07:01:07;15.65;;;6.22;;
39276;SDS011;63149;48.086;-1.606;2023-02-25T07:03:36;15.07;;;6.53;;
39276;SDS011;63149;48.086;-1.606;2023-02-25T07:06:03;14.65;;;6.78;;
39276;SDS011;63149;48.086;-1.606;2023-02-25T07:08:30;13.85;;;5.97;;
39276;SDS011;63149;48.086;-1.606;2023-02-25T07:11:09;14.95;;;6.07;;
39276;SDS011;63149;48.086;-1.606;2023-02-25T07:13:37;11.55;;;5.88;;
39276;SDS011;63149;48.086;-1.606;2023-02-25T07:16:07;18.90;;;5.82;;
39276;SDS011;63149;48.086;-1.606;2023-02-25T07:18:34;13.65;;;4.93;;
39276;SDS011;63149;48.086;-1.606;2023-02-25T07:21:01;9.15;;;4.35;;
39276;SDS011;63149;48.086;-1.606;2023-02-25T07:23:28;10.82;;;4.57;;
39276;SDS011;63149;48.086;-1.606;2023-02-25T07:25:55;17.42;;;5.15;;
39276;SDS011;63149;48.086;-1.606;2023-02-25T07:28:23;14.73;;;4.30;;
39276;SDS011;63149;48.086;-1.606;2023-02-25T07:30:50;10.23;;;4.53;;
39276;SDS011;63149;48.086;-1.606;2023-02-25T07:33:17;18.23;;;5.05;;
39276;SDS011;63149;48.086;-1.606;2023-02-25T07:35:44;10.00;;;5.05;;
39276;SDS011;63149;48.086;-1.606;2023-02-25T07:38:11;12.15;;;4.55;;
39276;SDS011;63149;48.086;-1.606;2023-02-25T07:40:38;11.15;;;4.57;;
39276;SDS011;63149;48.086;-1.606;2023-02-25T07:43:06;11.77;;;4.28;;
39276;SDS011;63149;48.086;-1.606;2023-02-25T07:45:34;17.63;;;4.63;;
39276;SDS011;63149;48.086;-1.606;2023-02-25T07:48:01;13.55;;;4.50;;
39276;SDS011;63149;48.086;-1.606;2023-02-25T07:50:28;11.05;;;4.47;;
39276;SDS011;63149;48.086;-1.606;2023-02-25T07:52:55;11.10;;;3.95;;
39276;SDS011;63149;48.086;-1.606;2023-02-25T07:55:22;10.73;;;4.05;;
39276;SDS011;63149;48.086;-1.606;2023-02-25T07:57:49;8.82;;;4.47;;
39276;SDS011;63149;48.086;-1.606;2023-02-25T08:00:16;11.02;;;3.90;;
39276;SDS011;63149;48.086;-1.606;2023-02-25T08:02:45;10.15;;;4.28;;
39276;SDS011;63149;48.086;-1.606;2023-02-25T08:05:12;16.33;;;3.60;;
39276;SDS011;63149;48.086;-1.606;2023-02-25T08:07:39;16.92;;;4.53;;
39276;SDS011;63149;48.086;-1.606;2023-02-25T08:10:06;12.77;;;4.20;;
39276;SDS011;63149;48.086;-1.606;2023-02-25T08:12:34;10.63;;;3.80;;
39276;SDS011;63149;48.086;-1.606;2023-02-25T08:15:02;14.38;;;4.30;;
39276;SDS011;63149;48.086;-1.606;2023-02-25T08:17:32;9.00;;;3.85;;
39276;SDS011;63149;48.086;-1.606;2023-02-25T08:20:01;13.45;;;3.05;;
39276;SDS011;63149;48.086;-1.606;2023-02-25T08:22:29;8.25;;;3.50;;
39276;SDS011;63149;48.086;-1.606;2023-02-25T08:24:55;8.05;;;3.53;;
39276;SDS011;63149;48.086;-1.606;2023-02-25T08:27:22;7.05;;;3.25;;
39276;SDS011;63149;48.086;-1.606;2023-02-25T08:29:49;11.68;;;3.75;;
39276;SDS011;63149;48.086;-1.606;2023-02-25T08:32:16;15.88;;;4.03;;
39276;SDS011;63149;48.086;-1.606;2023-02-25T08:34:43;15.30;;;4.45;;
39276;SDS011;63149;48.086;-1.606;2023-02-25T08:37:11;12.25;;;3.90;;
39276;SDS011;63149;48.086;-1.606;2023-02-25T08:39:38;11.02;;;3.55;;
39276;SDS011;63149;48.086;-1.606;2023-02-25T08:42:05;10.98;;;4.00;;
39276;SDS011;63149;48.086;-1.606;2023-02-25T08:44:32;16.02;;;3.92;;
39276;SDS011;63149;48.086;-1.606;2023-02-25T08:46:59;15.13;;;4.45;;
39276;SDS011;63149;48.086;-1.606;2023-02-25T08:49:26;12.38;;;3.92;;
39276;SDS011;63149;48.086;-1.606;2023-02-25T08:51:53;15.98;;;3.50;;
39276;SDS011;63149;48.086;-1.606;2023-02-25T08:54:21;10.68;;;4.13;;
39276;SDS011;63149;48.086;-1.606;2023-02-25T08:56:49;11.10;;;4.90;;
39276;SDS011;63149;48.086;-1.606;2023-02-25T08:59:16;7.70;;;3.17;;
39276;SDS011;63149;48.086;-1.606;2023-02-25T09:01:43;8.60;;;3.17;;
39276;SDS011;63149;48.086;-1.606;2023-02-25T09:04:11;7.38;;;3.40;;
39276;SDS011;63149;48.086;-1.606;2023-02-25T09:06:38;13.25;;;3.40;;
39276;SDS011;63149;48.086;-1.606;2023-02-25T09:09:05;10.98;;;3.22;;
39276;SDS011;63149;48.086;-1.606;2023-02-25T09:11:34;10.65;;;3.80;;
39276;SDS011;63149;48.086;-1.606;2023-02-25T09:14:01;9.98;;;4.38;;
39276;SDS011;63149;48.086;-1.606;2023-02-25T09:16:28;16.70;;;4.88;;
39276;SDS011;63149;48.086;-1.606;2023-02-25T09:18:56;11.88;;;3.45;;
39276;SDS011;63149;48.086;-1.606;2023-02-25T09:21:23;13.73;;;4.28;;
39276;SDS011;63149;48.086;-1.606;2023-02-25T09:23:50;12.80;;;4.03;;
39276;SDS011;63149;48.086;-1.606;2023-02-25T09:26:18;11.23;;;4.35;;
39276;SDS011;63149;48.086;-1.606;2023-02-25T09:28:47;9.82;;;2.80;;
39276;SDS011;63149;48.086;-1.606;2023-02-25T09:31:14;8.85;;;2.63;;
39276;SDS011;63149;48.086;-1.606;2023-02-25T09:33:42;7.40;;;2.40;;
39276;SDS011;63149;48.086;-1.606;2023-02-25T09:36:10;8.15;;;2.25;;
39276;SDS011;63149;48.086;-1.606;2023-02-25T09:38:39;8.95;;;2.22;;
39276;SDS011;63149;48.086;-1.606;2023-02-25T09:41:16;7.00;;;2.55;;
39276;SDS011;63149;48.086;-1.606;2023-02-25T09:43:55;6.97;;;2.47;;
39276;SDS011;63149;48.086;-1.606;2023-02-25T09:46:30;7.65;;;2.55;;
39276;SDS011;63149;48.086;-1.606;2023-02-25T09:49:01;4.40;;;1.98;;
39276;SDS011;63149;48.086;-1.606;2023-02-25T09:51:34;8.65;;;2.95;;
39276;SDS011;63149;48.086;-1.606;2023-02-25T09:54:08;8.75;;;2.33;;
39276;SDS011;63149;48.086;-1.606;2023-02-25T09:56:41;7.82;;;3.17;;
39276;SDS011;63149;48.086;-1.606;2023-02-25T09:59:12;8.07;;;2.42;;
39276;SDS011;63149;48.086;-1.606;2023-02-25T10:01:41;10.40;;;2.85;;
39276;SDS011;63149;48.086;-1.606;2023-02-25T10:04:13;6.90;;;2.33;;
39276;SDS011;63149;48.086;-1.606;2023-02-25T10:06:47;8.52;;;2.97;;
39276;SDS011;63149;48.086;-1.606;2023-02-25T10:09:17;6.20;;;2.30;;
39276;SDS011;63149;48.086;-1.606;2023-02-25T10:11:55;6.03;;;2.15;;
39276;SDS011;63149;48.086;-1.606;2023-02-25T10:14:38;9.00;;;2.72;;
39276;SDS011;63149;48.086;-1.606;2023-02-25T10:17:16;7.40;;;2.13;;
39276;SDS011;63149;48.086;-1.606;2023-02-25T10:19:56;5.43;;;2.42;;
39276;SDS011;63149;48.086;-1.606;2023-02-25T10:22:43;13.18;;;2.90;;
39276;SDS011;63149;48.086;-1.606;2023-02-25T10:25:17;8.13;;;2.55;;
39276;SDS011;63149;48.086;-1.606;2023-02-25T10:27:49;9.93;;;2.30;;
39276;SDS011;63149;48.086;-1.606;2023-02-25T10:30:22;7.28;;;2.78;;
39276;SDS011;63149;48.086;-1.606;2023-02-25T10:32:52;9.63;;;2.75;;
39276;SDS011;63149;48.086;-1.606;2023-02-25T10:35:22;9.07;;;2.00;;
39276;SDS011;63149;48.086;-1.606;2023-02-25T10:37:51;7.20;;;2.28;;
39276;SDS011;63149;48.086;-1.606;2023-02-25T10:40:19;7.25;;;2.75;;
39276;SDS011;63149;48.086;-1.606;2023-02-25T10:42:49;5.90;;;1.77;;
39276;SDS011;63149;48.086;-1.606;2023-02-25T10:45:19;12.55;;;2.30;;
39276;SDS011;63149;48.086;-1.606;2023-02-25T10:47:53;8.48;;;2.60;;
39276;SDS011;63149;48.086;-1.606;2023-02-25T10:50:26;9.48;;;2.58;;
39276;SDS011;63149;48.086;-1.606;2023-02-25T10:52:55;13.13;;;2.45;;
39276;SDS011;63149;48.086;-1.606;2023-02-25T10:55:26;9.10;;;2.05;;
39276;SDS011;63149;48.086;-1.606;2023-02-25T10:57:56;9.68;;;2.40;;
39276;SDS011;63149;48.086;-1.606;2023-02-25T11:00:27;6.70;;;2.08;;
39276;SDS011;63149;48.086;-1.606;2023-02-25T11:02:55;5.90;;;2.43;;
39276;SDS011;63149;48.086;-1.606;2023-02-25T11:05:28;10.00;;;1.95;;
39276;SDS011;63149;48.086;-1.606;2023-02-25T11:08:00;8.15;;;1.63;;
39276;SDS011;63149;48.086;-1.606;2023-02-25T11:10:30;11.80;;;2.00;;
39276;SDS011;63149;48.086;-1.606;2023-02-25T11:12:58;5.20;;;1.60;;
39276;SDS011;63149;48.086;-1.606;2023-02-25T11:15:30;12.00;;;1.98;;
39276;SDS011;63149;48.086;-1.606;2023-02-25T11:18:02;9.93;;;1.90;;
39276;SDS011;63149;48.086;-1.606;2023-02-25T11:20:40;9.30;;;1.80;;
39276;SDS011;63149;48.086;-1.606;2023-02-25T11:23:16;11.48;;;2.05;;
39276;SDS011;63149;48.086;-1.606;2023-02-25T11:25:47;6.10;;;3.35;;
39276;SDS011;63149;48.086;-1.606;2023-02-25T11:28:19;5.72;;;1.70;;
39276;SDS011;63149;48.086;-1.606;2023-02-25T11:30:55;9.88;;;2.10;;
39276;SDS011;63149;48.086;-1.606;2023-02-25T11:33:32;10.90;;;2.13;;
39276;SDS011;63149;48.086;-1.606;2023-02-25T11:36:01;10.60;;;2.08;;
39276;SDS011;63149;48.086;-1.606;2023-02-25T11:38:31;6.20;;;1.80;;
39276;SDS011;63149;48.086;-1.606;2023-02-25T11:40:59;8.65;;;1.60;;
39276;SDS011;63149;48.086;-1.606;2023-02-25T11:43:32;8.15;;;1.98;;
39276;SDS011;63149;48.086;-1.606;2023-02-25T11:46:02;11.18;;;2.00;;
39276;SDS011;63149;48.086;-1.606;2023-02-25T11:48:36;8.88;;;1.90;;
39276;SDS011;63149;48.086;-1.606;2023-02-25T11:51:15;9.40;;;1.85;;
39276;SDS011;63149;48.086;-1.606;2023-02-25T11:53:50;7.88;;;2.20;;
39276;SDS011;63149;48.086;-1.606;2023-02-25T11:56:37;6.28;;;1.92;;
39276;SDS011;63149;48.086;-1.606;2023-02-25T11:59:14;15.30;;;3.15;;
39276;SDS011;63149;48.086;-1.606;2023-02-25T12:02:03;14.80;;;2.53;;
39276;SDS011;63149;48.086;-1.606;2023-02-25T12:04:55;16.30;;;3.25;;
39276;SDS011;63149;48.086;-1.606;2023-02-25T12:08:03;13.07;;;2.40;;
39276;SDS011;63149;48.086;-1.606;2023-02-25T12:17:08;8.60;;;1.50;;
39276;SDS011;63149;48.086;-1.606;2023-02-25T12:19:58;6.72;;;1.98;;
39276;SDS011;63149;48.086;-1.606;2023-02-25T12:23:05;8.77;;;2.13;;
39276;SDS011;63149;48.086;-1.606;2023-02-25T12:26:00;8.27;;;2.00;;
39276;SDS011;63149;48.086;-1.606;2023-02-25T12:28:37;6.07;;;1.35;;
39276;SDS011;63149;48.086;-1.606;2023-02-25T12:34:53;5.88;;;1.75;;
39276;SDS011;63149;48.086;-1.606;2023-02-25T12:37:44;8.23;;;1.70;;
39276;SDS011;63149;48.086;-1.606;2023-02-25T12:40:31;8.00;;;2.42;;
39276;SDS011;63149;48.086;-1.606;2023-02-25T12:43:23;7.47;;;2.33;;
39276;SDS011;63149;48.086;-1.606;2023-02-25T12:48:59;9.88;;;1.88;;
39276;SDS011;63149;48.086;-1.606;2023-02-25T12:54:49;9.48;;;2.00;;
39276;SDS011;63149;48.086;-1.606;2023-02-25T12:57:36;8.40;;;1.88;;
39276;SDS011;63149;48.086;-1.606;2023-02-25T13:03:10;4.72;;;1.33;;
39276;SDS011;63149;48.086;-1.606;2023-02-25T13:05:54;9.05;;;2.13;;
39276;SDS011;63149;48.086;-1.606;2023-02-25T13:08:38;10.75;;;1.60;;
39276;SDS011;63149;48.086;-1.606;2023-02-25T13:11:23;4.70;;;1.55;;
39276;SDS011;63149;48.086;-1.606;2023-02-25T13:14:03;4.30;;;1.55;;
39276;SDS011;63149;48.086;-1.606;2023-02-25T13:16:45;6.65;;;2.17;;
39276;SDS011;63149;48.086;-1.606;2023-02-25T13:19:27;7.03;;;2.10;;
39276;SDS011;63149;48.086;-1.606;2023-02-25T13:22:18;9.00;;;1.60;;
39276;SDS011;63149;48.086;-1.606;2023-02-25T13:24:55;6.97;;;2.10;;
39276;SDS011;63149;48.086;-1.606;2023-02-25T13:30:32;6.15;;;1.35;;
39276;SDS011;63149;48.086;-1.606;2023-02-25T13:36:07;7.15;;;1.83;;
39276;SDS011;63149;48.086;-1.606;2023-02-25T13:38:56;5.55;;;1.92;;
39276;SDS011;63149;48.086;-1.606;2023-02-25T13:41:43;5.22;;;1.50;;
39276;SDS011;63149;48.086;-1.606;2023-02-25T13:44:26;4.25;;;1.42;;
39276;SDS011;63149;48.086;-1.606;2023-02-25T13:47:14;5.63;;;1.60;;
39276;SDS011;63149;48.086;-1.606;2023-02-25T13:50:02;5.43;;;1.48;;
39276;SDS011;63149;48.086;-1.606;2023-02-25T13:52:48;11.18;;;1.83;;
39276;SDS011;63149;48.086;-1.606;2023-02-25T13:55:36;3.63;;;1.48;;
39276;SDS011;63149;48.086;-1.606;2023-02-25T13:58:26;9.13;;;1.92;;
39276;SDS011;63149;48.086;-1.606;2023-02-25T14:01:32;8.30;;;1.80;;
39276;SDS011;63149;48.086;-1.606;2023-02-25T14:07:21;6.05;;;1.35;;
39276;SDS011;63149;48.086;-1.606;2023-02-25T14:10:17;9.23;;;1.63;;
39276;SDS011;63149;48.086;-1.606;2023-02-25T14:12:59;6.28;;;1.50;;
39276;SDS011;63149;48.086;-1.606;2023-02-25T14:15:41;13.98;;;2.75;;
39276;SDS011;63149;48.086;-1.606;2023-02-25T14:18:26;3.88;;;1.30;;
39276;SDS011;63149;48.086;-1.606;2023-02-25T14:21:21;11.25;;;2.78;;
39276;SDS011;63149;48.086;-1.606;2023-02-25T14:24:02;8.50;;;1.75;;
39276;SDS011;63149;48.086;-1.606;2023-02-25T14:26:37;6.28;;;1.42;;
39276;SDS011;63149;48.086;-1.606;2023-02-25T14:29:19;7.90;;;1.60;;
39276;SDS011;63149;48.086;-1.606;2023-02-25T14:32:12;9.13;;;1.90;;
39276;SDS011;63149;48.086;-1.606;2023-02-25T14:35:01;7.68;;;1.85;;
39276;SDS011;63149;48.086;-1.606;2023-02-25T14:37:41;8.13;;;1.88;;
39276;SDS011;63149;48.086;-1.606;2023-02-25T14:40:22;9.57;;;1.70;;
39276;SDS011;63149;48.086;-1.606;2023-02-25T14:43:10;5.22;;;1.75;;
39276;SDS011;63149;48.086;-1.606;2023-02-25T14:45:51;9.60;;;2.20;;
39276;SDS011;63149;48.086;-1.606;2023-02-25T14:50:53;9.25;;;2.05;;
39276;SDS011;63149;48.086;-1.606;2023-02-25T14:53:47;8.82;;;1.75;;
39276;SDS011;63149;48.086;-1.606;2023-02-25T14:56:38;6.10;;;1.60;;
39276;SDS011;63149;48.086;-1.606;2023-02-25T14:59:25;6.82;;;1.80;;
39276;SDS011;63149;48.086;-1.606;2023-02-25T15:02:26;11.07;;;2.03;;
39276;SDS011;63149;48.086;-1.606;2023-02-25T15:05:11;7.50;;;1.85;;
39276;SDS011;63149;48.086;-1.606;2023-02-25T15:08:18;5.60;;;1.63;;
39276;SDS011;63149;48.086;-1.606;2023-02-25T15:11:18;9.10;;;1.67;;
39276;SDS011;63149;48.086;-1.606;2023-02-25T15:17:40;3.63;;;1.17;;
39276;SDS011;63149;48.086;-1.606;2023-02-25T15:20:34;5.78;;;1.73;;
39276;SDS011;63149;48.086;-1.606;2023-02-25T15:23:04;7.20;;;1.63;;
39276;SDS011;63149;48.086;-1.606;2023-02-25T15:25:45;10.02;;;2.00;;
39276;SDS011;63149;48.086;-1.606;2023-02-25T15:31:23;7.57;;;2.05;;
39276;SDS011;63149;48.086;-1.606;2023-02-25T15:33:54;8.38;;;2.25;;
39276;SDS011;63149;48.086;-1.606;2023-02-25T15:37:20;10.23;;;2.63;;
39276;SDS011;63149;48.086;-1.606;2023-02-25T15:39:59;8.98;;;2.30;;
39276;SDS011;63149;48.086;-1.606;2023-02-25T15:42:47;5.40;;;2.05;;
39276;SDS011;63149;48.086;-1.606;2023-02-25T15:45:32;4.00;;;2.20;;
39276;SDS011;63149;48.086;-1.606;2023-02-25T15:51:00;6.32;;;2.55;;
39276;SDS011;63149;48.086;-1.606;2023-02-25T15:56:22;9.10;;;2.80;;
39276;SDS011;63149;48.086;-1.606;2023-02-25T15:58:55;5.22;;;2.35;;
39276;SDS011;63149;48.086;-1.606;2023-02-25T16:07:11;10.98;;;2.70;;
39276;SDS011;63149;48.086;-1.606;2023-02-25T16:09:41;9.93;;;3.13;;
39276;SDS011;63149;48.086;-1.606;2023-02-25T16:12:13;8.13;;;2.45;;
39276;SDS011;63149;48.086;-1.606;2023-02-25T16:14:41;7.30;;;2.50;;
39276;SDS011;63149;48.086;-1.606;2023-02-25T16:17:13;7.07;;;2.40;;
39276;SDS011;63149;48.086;-1.606;2023-02-25T16:19:42;13.30;;;2.17;;
39276;SDS011;63149;48.086;-1.606;2023-02-25T16:22:15;6.78;;;1.90;;
39276;SDS011;63149;48.086;-1.606;2023-02-25T16:24:46;10.52;;;2.42;;
39276;SDS011;63149;48.086;-1.606;2023-02-25T16:27:17;10.07;;;2.28;;
39276;SDS011;63149;48.086;-1.606;2023-02-25T16:29:57;9.77;;;2.30;;
39276;SDS011;63149;48.086;-1.606;2023-02-25T16:32:35;6.45;;;2.38;;
39276;SDS011;63149;48.086;-1.606;2023-02-25T16:35:08;9.90;;;3.40;;
39276;SDS011;63149;48.086;-1.606;2023-02-25T16:37:41;8.65;;;2.72;;
39276;SDS011;63149;48.086;-1.606;2023-02-25T16:40:19;6.85;;;2.33;;
39276;SDS011;63149;48.086;-1.606;2023-02-25T16:42:50;8.30;;;2.67;;
39276;SDS011;63149;48.086;-1.606;2023-02-25T16:45:23;5.90;;;2.85;;
39276;SDS011;63149;48.086;-1.606;2023-02-25T16:47:52;7.80;;;2.65;;
39276;SDS011;63149;48.086;-1.606;2023-02-25T16:50:22;13.50;;;2.42;;
39276;SDS011;63149;48.086;-1.606;2023-02-25T16:52:52;9.02;;;3.50;;
39276;SDS011;63149;48.086;-1.606;2023-02-25T16:55:21;5.97;;;3.20;;
39276;SDS011;63149;48.086;-1.606;2023-02-25T16:58:00;8.75;;;3.03;;
39276;SDS011;63149;48.086;-1.606;2023-02-25T17:00:31;12.05;;;3.55;;
39276;SDS011;63149;48.086;-1.606;2023-02-25T17:03:01;12.00;;;3.78;;
39276;SDS011;63149;48.086;-1.606;2023-02-25T17:05:31;10.73;;;4.00;;
39276;SDS011;63149;48.086;-1.606;2023-02-25T17:08:01;7.55;;;3.85;;
39276;SDS011;63149;48.086;-1.606;2023-02-25T17:10:32;11.57;;;3.90;;
39276;SDS011;63149;48.086;-1.606;2023-02-25T17:13:02;16.70;;;5.20;;
39276;SDS011;63149;48.086;-1.606;2023-02-25T17:15:30;10.45;;;3.30;;
39276;SDS011;63149;48.086;-1.606;2023-02-25T17:18:01;13.25;;;4.68;;
39276;SDS011;63149;48.086;-1.606;2023-02-25T17:20:32;16.73;;;5.35;;
39276;SDS011;63149;48.086;-1.606;2023-02-25T17:23:02;18.48;;;5.45;;
39276;SDS011;63149;48.086;-1.606;2023-02-25T17:25:35;15.73;;;5.53;;
39276;SDS011;63149;48.086;-1.606;2023-02-25T17:28:04;11.93;;;5.28;;
39276;SDS011;63149;48.086;-1.606;2023-02-25T17:30:34;13.00;;;4.88;;
39276;SDS011;63149;48.086;-1.606;2023-02-25T17:33:03;11.60;;;5.10;;
39276;SDS011;63149;48.086;-1.606;2023-02-25T17:35:31;10.93;;;4.57;;
39276;SDS011;63149;48.086;-1.606;2023-02-25T17:37:59;11.57;;;4.72;;
39276;SDS011;63149;48.086;-1.606;2023-02-25T17:40:27;18.38;;;4.68;;
39276;SDS011;63149;48.086;-1.606;2023-02-25T17:45:46;8.07;;;4.30;;
39276;SDS011;63149;48.086;-1.606;2023-02-25T17:48:21;12.82;;;4.35;;
39276;SDS011;63149;48.086;-1.606;2023-02-25T17:50:51;13.27;;;4.45;;
39276;SDS011;63149;48.086;-1.606;2023-02-25T17:53:28;13.20;;;3.92;;
39276;SDS011;63149;48.086;-1.606;2023-02-25T17:58:53;12.32;;;3.45;;
39276;SDS011;63149;48.086;-1.606;2023-02-25T18:01:26;12.13;;;3.28;;
39276;SDS011;63149;48.086;-1.606;2023-02-25T18:03:55;9.68;;;3.20;;
39276;SDS011;63149;48.086;-1.606;2023-02-25T18:09:28;13.17;;;3.60;;
39276;SDS011;63149;48.086;-1.606;2023-02-25T18:11:57;13.40;;;3.28;;
39276;SDS011;63149;48.086;-1.606;2023-02-25T18:14:30;7.57;;;3.20;;
39276;SDS011;63149;48.086;-1.606;2023-02-25T18:16:59;8.80;;;2.92;;
39276;SDS011;63149;48.086;-1.606;2023-02-25T18:19:30;15.43;;;3.55;;
39276;SDS011;63149;48.086;-1.606;2023-02-25T18:22:02;8.98;;;3.25;;
39276;SDS011;63149;48.086;-1.606;2023-02-25T18:24:30;10.85;;;3.97;;
39276;SDS011;63149;48.086;-1.606;2023-02-25T18:29:52;15.90;;;4.40;;
39276;SDS011;63149;48.086;-1.606;2023-02-25T18:32:22;9.43;;;3.03;;
39276;SDS011;63149;48.086;-1.606;2023-02-25T18:34:49;12.35;;;3.20;;
39276;SDS011;63149;48.086;-1.606;2023-02-25T18:37:16;12.43;;;2.70;;
39276;SDS011;63149;48.086;-1.606;2023-02-25T18:39:45;15.57;;;3.95;;
39276;SDS011;63149;48.086;-1.606;2023-02-25T18:42:15;10.13;;;3.17;;
39276;SDS011;63149;48.086;-1.606;2023-02-25T18:44:43;8.73;;;2.80;;
39276;SDS011;63149;48.086;-1.606;2023-02-25T18:47:12;8.10;;;2.90;;
39276;SDS011;63149;48.086;-1.606;2023-02-25T18:49:41;13.35;;;4.20;;
39276;SDS011;63149;48.086;-1.606;2023-02-25T18:52:10;14.50;;;3.30;;
39276;SDS011;63149;48.086;-1.606;2023-02-25T18:54:44;17.73;;;3.55;;
39276;SDS011;63149;48.086;-1.606;2023-02-25T18:57:13;17.77;;;3.03;;
39276;SDS011;63149;48.086;-1.606;2023-02-25T18:59:43;18.13;;;3.97;;
39276;SDS011;63149;48.086;-1.606;2023-02-25T19:02:15;10.73;;;2.90;;
39276;SDS011;63149;48.086;-1.606;2023-02-25T19:04:51;12.43;;;2.90;;
39276;SDS011;63149;48.086;-1.606;2023-02-25T19:07:19;13.60;;;3.20;;
39276;SDS011;63149;48.086;-1.606;2023-02-25T19:09:46;8.70;;;3.35;;
39276;SDS011;63149;48.086;-1.606;2023-02-25T19:12:15;12.93;;;2.92;;
39276;SDS011;63149;48.086;-1.606;2023-02-25T19:14:42;11.77;;;3.20;;
39276;SDS011;63149;48.086;-1.606;2023-02-25T19:17:12;11.15;;;3.30;;
39276;SDS011;63149;48.086;-1.606;2023-02-25T19:19:42;13.65;;;3.40;;
39276;SDS011;63149;48.086;-1.606;2023-02-25T19:22:10;13.75;;;3.15;;
39276;SDS011;63149;48.086;-1.606;2023-02-25T19:24:40;9.30;;;3.28;;
39276;SDS011;63149;48.086;-1.606;2023-02-25T19:27:08;19.35;;;4.00;;
39276;SDS011;63149;48.086;-1.606;2023-02-25T19:29:44;15.23;;;4.93;;
39276;SDS011;63149;48.086;-1.606;2023-02-25T19:32:12;13.52;;;4.45;;
39276;SDS011;63149;48.086;-1.606;2023-02-25T19:34:42;12.52;;;3.53;;
39276;SDS011;63149;48.086;-1.606;2023-02-25T19:37:09;11.32;;;3.83;;
39276;SDS011;63149;48.086;-1.606;2023-02-25T19:39:36;14.88;;;4.80;;
39276;SDS011;63149;48.086;-1.606;2023-02-25T19:42:03;17.08;;;3.95;;
39276;SDS011;63149;48.086;-1.606;2023-02-25T19:44:30;16.00;;;4.22;;
39276;SDS011;63149;48.086;-1.606;2023-02-25T19:46:58;15.00;;;4.45;;
39276;SDS011;63149;48.086;-1.606;2023-02-25T19:49:24;7.25;;;3.88;;
39276;SDS011;63149;48.086;-1.606;2023-02-25T19:51:53;21.17;;;5.07;;
39276;SDS011;63149;48.086;-1.606;2023-02-25T19:54:20;21.48;;;4.07;;
39276;SDS011;63149;48.086;-1.606;2023-02-25T19:56:48;20.17;;;3.50;;
39276;SDS011;63149;48.086;-1.606;2023-02-25T19:59:15;10.80;;;3.28;;
39276;SDS011;63149;48.086;-1.606;2023-02-25T20:01:42;11.32;;;3.00;;
39276;SDS011;63149;48.086;-1.606;2023-02-25T20:04:11;21.25;;;3.67;;
39276;SDS011;63149;48.086;-1.606;2023-02-25T20:06:38;13.10;;;3.28;;
39276;SDS011;63149;48.086;-1.606;2023-02-25T20:09:06;15.88;;;2.63;;
39276;SDS011;63149;48.086;-1.606;2023-02-25T20:11:34;16.80;;;2.90;;
39276;SDS011;63149;48.086;-1.606;2023-02-25T20:14:02;10.35;;;3.60;;
39276;SDS011;63149;48.086;-1.606;2023-02-25T20:16:29;11.90;;;3.45;;
39276;SDS011;63149;48.086;-1.606;2023-02-25T20:18:56;14.73;;;3.33;;
39276;SDS011;63149;48.086;-1.606;2023-02-25T20:21:24;13.82;;;2.90;;
39276;SDS011;63149;48.086;-1.606;2023-02-25T20:23:51;12.00;;;3.70;;
39276;SDS011;63149;48.086;-1.606;2023-02-25T20:26:20;18.05;;;4.38;;
39276;SDS011;63149;48.086;-1.606;2023-02-25T20:28:50;14.65;;;3.35;;
39276;SDS011;63149;48.086;-1.606;2023-02-25T20:31:17;12.88;;;2.90;;
39276;SDS011;63149;48.086;-1.606;2023-02-25T20:33:45;16.92;;;3.83;;
39276;SDS011;63149;48.086;-1.606;2023-02-25T20:36:16;11.98;;;2.53;;
39276;SDS011;63149;48.086;-1.606;2023-02-25T20:38:51;13.50;;;4.50;;
39276;SDS011;63149;48.086;-1.606;2023-02-25T20:41:27;14.90;;;2.80;;
39276;SDS011;63149;48.086;-1.606;2023-02-25T20:43:55;15.80;;;3.28;;
39276;SDS011;63149;48.086;-1.606;2023-02-25T20:46:24;18.05;;;3.60;;
39276;SDS011;63149;48.086;-1.606;2023-02-25T20:48:53;16.20;;;2.80;;
39276;SDS011;63149;48.086;-1.606;2023-02-25T20:51:20;15.30;;;3.60;;
39276;SDS011;63149;48.086;-1.606;2023-02-25T20:53:47;16.33;;;3.25;;
39276;SDS011;63149;48.086;-1.606;2023-02-25T20:56:15;15.65;;;3.30;;
39276;SDS011;63149;48.086;-1.606;2023-02-25T20:58:47;14.10;;;3.30;;
39276;SDS011;63149;48.086;-1.606;2023-02-25T21:01:14;14.32;;;3.33;;
39276;SDS011;63149;48.086;-1.606;2023-02-25T21:03:41;18.65;;;3.30;;
39276;SDS011;63149;48.086;-1.606;2023-02-25T21:06:08;17.00;;;3.60;;
39276;SDS011;63149;48.086;-1.606;2023-02-25T21:08:37;14.80;;;3.42;;
39276;SDS011;63149;48.086;-1.606;2023-02-25T21:11:04;11.90;;;3.13;;
39276;SDS011;63149;48.086;-1.606;2023-02-25T21:13:31;14.25;;;3.75;;
39276;SDS011;63149;48.086;-1.606;2023-02-25T21:16:02;12.20;;;3.33;;
39276;SDS011;63149;48.086;-1.606;2023-02-25T21:18:30;21.60;;;4.25;;
39276;SDS011;63149;48.086;-1.606;2023-02-25T21:20:58;17.70;;;4.22;;
39276;SDS011;63149;48.086;-1.606;2023-02-25T21:23:26;15.30;;;3.30;;
39276;SDS011;63149;48.086;-1.606;2023-02-25T21:25:55;16.40;;;4.00;;
39276;SDS011;63149;48.086;-1.606;2023-02-25T21:28:22;18.70;;;4.63;;
39276;SDS011;63149;48.086;-1.606;2023-02-25T21:30:50;12.50;;;3.75;;
39276;SDS011;63149;48.086;-1.606;2023-02-25T21:33:18;16.88;;;4.85;;
39276;SDS011;63149;48.086;-1.606;2023-02-25T21:35:49;20.48;;;4.32;;
39276;SDS011;63149;48.086;-1.606;2023-02-25T21:38:17;18.70;;;4.00;;
39276;SDS011;63149;48.086;-1.606;2023-02-25T21:40:44;22.55;;;4.70;;
39276;SDS011;63149;48.086;-1.606;2023-02-25T21:43:11;11.77;;;3.95;;
39276;SDS011;63149;48.086;-1.606;2023-02-25T21:45:38;15.00;;;4.88;;
39276;SDS011;63149;48.086;-1.606;2023-02-25T21:48:05;18.88;;;4.82;;
39276;SDS011;63149;48.086;-1.606;2023-02-25T21:50:34;18.83;;;4.80;;
39276;SDS011;63149;48.086;-1.606;2023-02-25T21:53:01;18.55;;;5.07;;
39276;SDS011;63149;48.086;-1.606;2023-02-25T21:55:27;10.18;;;4.18;;
39276;SDS011;63149;48.086;-1.606;2023-02-25T21:57:54;27.35;;;4.53;;
39276;SDS011;63149;48.086;-1.606;2023-02-25T22:00:21;21.13;;;4.88;;